Time;durP1;ratioP1;P1;durP2;ratioP2;P2;SDS_P1;SDS_P2;PMS_P1;PMS_P2;Temp;Humidity;BMP_temperature;BMP_pressure;BME280_temperature;BME280_humidity;BME280_pressure;Samples;Min_cycle;Max_cycle;Signal;HPM_P1;HPM_P2
2022/12/01 00:02:20;;;;;;;0.47;0.35;;;;;;;3.39;100.00;94863.97;5049350;28;20246;-75
2022/12/01 00:04:51;;;;;;;0.90;0.52;;;;;;;3.38;100.00;94865.03;5049482;28;20610;-75
2022/12/01 00:07:20;;;;;;;0.77;0.50;;;;;;;3.35;100.00;94854.88;5058052;28;20192;-74
2022/12/01 00:12:33;;;;;;;1.45;0.60;;;;;;;3.38;100.00;94858.88;5057400;28;20203;-76
2022/12/01 00:15:01;;;;;;;0.75;0.47;;;;;;;3.37;100.00;94857.28;5062754;28;20208;-77
2022/12/01 00:17:29;;;;;;;0.38;0.38;;;;;;;3.35;100.00;94830.78;5061512;28;20950;-75
2022/12/01 00:19:57;;;;;;;0.50;0.50;;;;;;;3.44;100.00;94847.84;5063040;28;20697;-75
2022/12/01 00:22:24;;;;;;;0.30;0.30;;;;;;;3.42;100.00;94839.28;5061541;28;20199;-76
2022/12/01 00:24:51;;;;;;;2.17;0.40;;;;;;;3.47;100.00;94841.16;5054953;28;20214;-75
2022/12/01 00:27:20;;;;;;;0.30;0.30;;;;;;;3.52;100.00;94851.84;5056221;28;20215;-75
2022/12/01 00:29:49;;;;;;;0.30;0.30;;;;;;;3.49;100.00;94845.16;5048964;28;20342;-77
2022/12/01 00:32:16;;;;;;;1.00;0.30;;;;;;;3.54;100.00;94844.34;5062606;28;20203;-75
2022/12/01 00:34:43;;;;;;;0.20;0.20;;;;;;;3.53;100.00;94846.22;5055664;28;20256;-76
2022/12/01 00:37:11;;;;;;;0.45;0.40;;;;;;;3.47;100.00;94847.31;5055299;28;20224;-77
2022/12/01 00:39:38;;;;;;;0.30;0.30;;;;;;;3.50;100.00;94844.09;5061640;28;20741;-75
2022/12/01 00:42:05;;;;;;;0.20;0.20;;;;;;;3.53;100.00;94850.75;5065191;28;20249;-76
2022/12/01 00:44:31;;;;;;;0.30;0.30;;;;;;;3.50;100.00;94841.41;5060555;28;20203;-77
2022/12/01 00:46:58;;;;;;;1.52;0.43;;;;;;;3.52;100.00;94849.97;5058938;28;20211;-74
2022/12/01 00:49:25;;;;;;;0.40;0.40;;;;;;;3.52;100.00;94844.59;5063699;28;20231;-76
2022/12/01 00:51:52;;;;;;;0.57;0.57;;;;;;;3.53;100.00;94846.22;5067683;28;20203;-76
2022/12/01 00:54:20;;;;;;;1.00;0.90;;;;;;;3.49;100.00;94829.09;5063236;28;20663;-76
2022/12/01 00:56:47;;;;;;;0.22;0.22;;;;;;;3.55;100.00;94838.69;5054909;28;20203;-76
2022/12/01 00:59:13;;;;;;;0.50;0.50;;;;;;;3.52;100.00;94839.25;5063393;28;20206;-76
2022/12/01 01:01:40;;;;;;;0.32;0.32;;;;;;;3.53;100.00;94835.50;5065494;28;20272;-75
2022/12/01 01:04:07;;;;;;;0.52;0.52;;;;;;;3.51;100.00;94837.66;5061087;28;20682;-76
2022/12/01 01:06:34;;;;;;;0.20;0.20;;;;;;;3.54;100.00;94842.47;5058757;28;20254;-75
2022/12/01 01:09:00;;;;;;;0.35;0.35;;;;;;;3.57;100.00;94838.41;5062913;28;20262;-75
2022/12/01 01:11:30;;;;;;;0.40;0.40;;;;;;;3.57;100.00;94847.22;5068091;28;20217;-77
2022/12/01 01:13:59;;;;;;;0.20;0.20;;;;;;;3.63;100.00;94833.81;5061692;28;20262;-75
2022/12/01 01:16:26;;;;;;;0.95;0.90;;;;;;;3.58;100.00;94827.41;5065221;28;20200;-74
2022/12/01 01:18:54;;;;;;;0.30;0.30;;;;;;;3.62;100.00;94834.91;5062574;28;20729;-76
2022/12/01 01:21:21;;;;;;;0.75;0.75;;;;;;;3.61;100.00;94830.63;5058589;28;20211;-74
2022/12/01 01:23:48;;;;;;;0.25;0.25;;;;;;;3.65;100.00;94829.00;5071356;28;20198;-76
2022/12/01 01:26:17;;;;;;;0.40;0.40;;;;;;;3.63;100.00;94828.47;5058320;28;20203;-76
2022/12/01 01:28:46;;;;;;;0.35;0.32;;;;;;;3.65;100.00;94835.16;5059444;28;20231;-76
2022/12/01 01:31:15;;;;;;;0.30;0.30;;;;;;;3.66;100.00;94830.59;5070339;28;20205;-75
2022/12/01 01:33:42;;;;;;;0.30;0.30;;;;;;;3.64;100.00;94832.75;5059250;28;20235;-76
2022/12/01 01:36:09;;;;;;;0.32;0.32;;;;;;;3.61;100.00;94825.25;5065381;28;20208;-76
2022/12/01 01:38:36;;;;;;;0.20;0.20;;;;;;;3.70;100.00;94823.56;5064424;28;20609;-76
2022/12/01 01:41:05;;;;;;;0.32;0.32;;;;;;;3.70;100.00;94815.53;5052126;28;20512;-75
2022/12/01 01:43:43;;;;;;;0.45;0.35;;;;;;;3.66;100.00;94823.34;5051262;28;20592;-75
2022/12/01 01:46:13;;;;;;;0.52;0.40;;;;;;;3.69;100.00;94808.63;5059490;28;20215;-77
2022/12/01 01:48:41;;;;;;;0.20;0.20;;;;;;;3.68;100.00;94809.69;5056485;28;20277;-75
2022/12/01 01:51:10;;;;;;;0.40;0.40;;;;;;;3.68;100.00;94805.13;5050956;28;20216;-76
2022/12/01 01:53:37;;;;;;;0.20;0.20;;;;;;;3.66;100.00;94809.16;5053668;28;20202;-76
2022/12/01 01:56:06;;;;;;;0.20;0.20;;;;;;;3.71;100.00;94803.75;5060808;28;20268;-75
2022/12/01 01:58:34;;;;;;;1.75;0.40;;;;;;;3.71;100.00;94804.53;5064612;28;20207;-72
2022/12/01 02:01:01;;;;;;;0.77;0.50;;;;;;;3.71;100.00;94809.09;5051498;28;20713;-76
2022/12/01 02:03:30;;;;;;;0.88;0.60;;;;;;;3.69;100.00;94812.06;5063915;28;20272;-76
2022/12/01 02:05:57;;;;;;;0.15;0.15;;;;;;;3.67;100.00;94798.19;5051340;28;20257;-76
2022/12/01 02:08:24;;;;;;;0.30;0.30;;;;;;;3.67;100.00;94792.03;5063924;28;20289;-75
2022/12/01 02:11:11;;;;;;;0.30;0.30;;;;;;;3.63;100.00;94790.97;5051083;28;20303;-76
2022/12/01 02:13:51;;;;;;;0.20;0.20;;;;;;;3.61;100.00;94803.84;5051119;28;20196;-75
2022/12/01 02:16:31;;;;;;;0.80;0.68;;;;;;;3.57;100.00;94793.66;5051206;28;20242;-75
2022/12/01 02:19:11;;;;;;;0.30;0.30;;;;;;;3.55;100.00;94785.13;5062242;28;20604;-75
2022/12/01 02:21:54;;;;;;;0.95;0.30;;;;;;;3.56;100.00;94784.03;5057470;28;20195;-75
2022/12/01 02:24:46;;;;;;;0.30;0.30;;;;;;;3.54;100.00;94788.91;5068106;28;20256;-76
2022/12/01 02:27:31;;;;;;;0.45;0.45;;;;;;;3.53;100.00;94787.28;5063663;28;20195;-74
2022/12/01 02:30:09;;;;;;;0.30;0.30;;;;;;;3.53;100.00;94800.69;5058911;28;20222;-76
2022/12/01 02:32:52;;;;;;;0.52;0.52;;;;;;;3.52;100.00;94796.41;5056973;28;20798;-75
2022/12/01 02:35:28;;;;;;;0.45;0.30;;;;;;;3.51;100.00;94789.44;5057817;28;20222;-75
2022/12/01 02:38:07;;;;;;;1.83;0.73;;;;;;;3.51;100.00;94789.44;5050164;28;20281;-75
2022/12/01 02:40:41;;;;;;;0.30;0.30;;;;;;;3.51;100.00;94784.09;5052989;28;20602;-74
2022/12/01 02:43:14;;;;;;;0.20;0.20;;;;;;;3.49;100.00;94788.13;5060700;28;20191;-75
2022/12/01 02:45:48;;;;;;;0.20;0.20;;;;;;;3.44;100.00;94778.25;5068552;28;20622;-77
2022/12/01 02:48:20;;;;;;;6.50;0.50;;;;;;;3.50;100.00;94787.84;5058376;28;20208;-75
2022/12/01 02:50:49;;;;;;;0.25;0.25;;;;;;;3.48;100.00;94795.34;5057062;28;20661;-74
2022/12/01 02:53:18;;;;;;;0.30;0.30;;;;;;;3.51;100.00;94788.66;5056796;28;20199;-74
2022/12/01 02:55:50;;;;;;;0.30;0.30;;;;;;;3.54;100.00;94799.59;5057829;28;20302;-75
2022/12/01 02:58:16;;;;;;;0.30;0.30;;;;;;;3.48;100.00;94784.66;5055396;28;20536;-75
2022/12/01 03:01:01;;;;;;;0.40;0.40;;;;;;;3.53;100.00;94787.28;5058039;28;20711;-74
2022/12/01 03:03:47;;;;;;;0.52;0.52;;;;;;;3.51;100.00;94794.81;5056601;28;20193;-76
2022/12/01 03:06:24;;;;;;;0.50;0.40;;;;;;;3.52;100.00;94791.06;5056353;28;20199;-76
2022/12/01 03:08:59;;;;;;;0.25;0.22;;;;;;;3.52;100.00;94795.59;5050122;28;20345;-76
2022/12/01 03:11:35;;;;;;;0.50;0.50;;;;;;;3.53;100.00;94789.97;5063577;28;20257;-75
2022/12/01 03:14:16;;;;;;;0.30;0.30;;;;;;;3.54;100.00;94791.56;5050132;28;20355;-76
2022/12/01 03:16:49;;;;;;;0.30;0.30;;;;;;;3.53;100.00;94784.63;5063759;28;20639;-76
2022/12/01 03:19:26;;;;;;;0.35;0.30;;;;;;;3.53;100.00;94784.63;5063246;28;20191;-75
2022/12/01 03:21:58;;;;;;;0.73;0.73;;;;;;;3.54;100.00;94791.56;5058224;28;20245;-75
2022/12/01 03:24:28;;;;;;;0.40;0.40;;;;;;;3.50;100.00;94774.47;5066910;28;20550;-78
2022/12/01 03:26:58;;;;;;;0.20;0.20;;;;;;;3.57;100.00;94785.63;5049292;28;20215;-76
2022/12/01 03:29:30;;;;;;;0.73;0.73;;;;;;;3.56;100.00;94792.06;5062724;28;20308;-75
2022/12/01 03:32:03;;;;;;;3.03;0.45;;;;;;;3.62;100.00;94795.53;5061292;28;20234;-75
2022/12/01 03:34:36;;;;;;;0.90;0.80;;;;;;;3.58;100.00;94784.56;5064126;28;20242;-76
2022/12/01 03:37:07;;;;;;;0.50;0.50;;;;;;;3.53;100.00;94781.94;5062621;28;20276;-75
2022/12/01 03:39:37;;;;;;;2.00;0.88;;;;;;;3.50;100.00;94793.19;5056303;28;20286;-74
2022/12/01 03:42:10;;;;;;;1.10;0.52;;;;;;;3.45;100.00;94769.13;5055540;28;20253;-75
2022/12/01 03:44:44;;;;;;;0.68;0.40;;;;;;;3.48;100.00;94779.28;5057450;28;20198;-74
2022/12/01 03:47:14;;;;;;;0.40;0.40;;;;;;;3.43;100.00;94782.00;5055968;28;20199;-73
2022/12/01 03:49:43;;;;;;;0.25;0.25;;;;;;;3.42;100.00;94783.06;5058389;28;20216;-73
2022/12/01 03:52:19;;;;;;;0.20;0.20;;;;;;;3.40;100.00;94777.22;5062674;28;20762;-76
2022/12/01 03:54:55;;;;;;;0.28;0.28;;;;;;;3.38;100.00;94779.38;5049493;28;20192;-74
2022/12/01 03:57:29;;;;;;;0.35;0.35;;;;;;;3.36;100.00;94780.72;5055937;28;20670;-74
2022/12/01 03:59:56;;;;;;;0.40;0.40;;;;;;;3.34;100.00;94772.97;5054066;28;20192;-76
2022/12/01 04:02:26;;;;;;;0.65;0.47;;;;;;;3.32;100.00;94769.75;5056400;28;20203;-74
2022/12/01 04:04:54;;;;;;;0.30;0.30;;;;;;;3.25;100.00;94774.63;5055705;28;20295;-75
2022/12/01 04:07:22;;;;;;;0.47;0.47;;;;;;;3.23;100.00;94776.78;5060116;28;20254;-75
2022/12/01 04:09:48;;;;;;;0.20;0.20;;;;;;;3.29;100.00;94786.38;5062163;28;20258;-74
2022/12/01 04:12:31;;;;;;;0.32;0.32;;;;;;;3.25;100.00;94776.53;5057997;28;20261;-76
2022/12/01 04:14:59;;;;;;;0.40;0.40;;;;;;;3.21;100.00;94774.38;5051497;28;20282;-74
2022/12/01 04:17:26;;;;;;;0.25;0.25;;;;;;;3.20;100.00;94766.63;5053332;28;20207;-75
2022/12/01 04:19:57;;;;;;;0.63;0.63;;;;;;;3.20;100.00;94772.78;5058129;28;20272;-76
2022/12/01 04:22:24;;;;;;;0.38;0.38;;;;;;;3.17;100.00;94780.56;5060190;28;20667;-75
2022/12/01 04:24:50;;;;;;;0.57;0.45;;;;;;;3.13;100.00;94776.88;5065792;28;20718;-75
2022/12/01 04:27:17;;;;;;;0.30;0.30;;;;;;;3.09;100.00;94786.50;5065188;28;20658;-75
2022/12/01 04:29:47;;;;;;;0.47;0.47;;;;;;;3.10;100.00;94785.44;5059134;28;20261;-76
2022/12/01 04:32:14;;;;;;;0.32;0.32;;;;;;;3.03;100.00;94784.94;5059089;28;20196;-78
2022/12/01 04:34:41;;;;;;;0.40;0.40;;;;;;;3.03;100.00;94792.97;5059332;28;20672;-77
2022/12/01 04:37:10;;;;;;;0.40;0.40;;;;;;;2.94;100.00;94784.72;5058444;28;20880;-74
2022/12/01 04:39:38;;;;;;;0.30;0.30;;;;;;;2.94;100.00;94792.75;5065016;28;20246;-75
2022/12/01 04:42:05;;;;;;;0.38;0.38;;;;;;;2.91;100.00;94787.94;5065816;28;20196;-75
2022/12/01 04:44:32;;;;;;;0.22;0.22;;;;;;;2.90;100.00;94798.91;5052084;28;20195;-75
2022/12/01 04:46:58;;;;;;;0.30;0.30;;;;;;;2.87;100.00;94805.59;5053193;28;20257;-74
2022/12/01 04:49:25;;;;;;;6.75;0.77;;;;;;;2.84;100.00;94790.94;5059058;28;20235;-76
2022/12/01 04:51:52;;;;;;;0.20;0.20;;;;;;;2.84;100.00;94801.63;5054086;28;20188;-77
2022/12/01 04:54:21;;;;;;;0.25;0.25;;;;;;;2.79;100.00;94793.63;5065652;28;20196;-77
2022/12/01 04:56:47;;;;;;;0.70;0.35;;;;;;;2.78;100.00;94794.69;5063618;28;20246;-76
2022/12/01 04:59:14;;;;;;;0.43;0.43;;;;;;;2.78;100.00;94800.03;5052302;28;20745;-76
2022/12/01 05:01:41;;;;;;;0.50;0.47;;;;;;;2.73;100.00;94805.41;5067780;28;20277;-76
2022/12/01 05:04:10;;;;;;;0.40;0.40;;;;;;;2.71;100.00;94791.53;5072037;28;20199;-78
2022/12/01 05:06:37;;;;;;;0.52;0.45;;;;;;;2.72;100.00;94803.81;5069734;28;20269;-79
2022/12/01 05:09:04;;;;;;;0.47;0.45;;;;;;;2.70;100.00;94805.16;5061126;28;20264;-78
2022/12/01 05:11:33;;;;;;;0.40;0.40;;;;;;;2.67;100.00;94803.84;5057913;28;20203;-76
2022/12/01 05:14:00;;;;;;;0.40;0.28;;;;;;;2.68;100.00;94796.63;5061893;28;20204;-78
2022/12/01 05:16:28;;;;;;;0.40;0.40;;;;;;;2.70;100.00;94800.63;5065268;28;20204;-77
2022/12/01 05:21:39;;;;;;;0.93;0.93;;;;;;;2.64;100.00;94807.03;5057881;28;20202;-79
2022/12/01 05:24:06;;;;;;;0.40;0.40;;;;;;;2.66;100.00;94815.59;5071280;28;20191;-79
2022/12/01 05:26:34;;;;;;;0.73;0.50;;;;;;;2.58;100.00;94808.16;5051310;28;20312;-79
2022/12/01 05:29:01;;;;;;;0.60;0.60;;;;;;;2.61;100.00;94812.94;5051641;28;20206;-79
2022/12/01 05:31:28;;;;;;;0.47;0.47;;;;;;;2.61;100.00;94815.59;5057055;28;20229;-77
2022/12/01 05:33:55;;;;;;;0.85;0.65;;;;;;;2.61;100.00;94812.94;5056670;28;20720;-75
2022/12/01 05:36:22;;;;;;;0.60;0.50;;;;;;;2.59;100.00;94807.09;5050162;28;20253;-79
2022/12/01 05:38:48;;;;;;;1.10;1.05;;;;;;;2.58;100.00;94813.50;5050940;28;20261;-78
2022/12/01 05:41:15;;;;;;;0.52;0.52;;;;;;;2.61;100.00;94807.59;5051083;28;20203;-77
2022/12/01 05:43:44;;;;;;;0.45;0.45;;;;;;;2.65;100.00;94819.34;5050186;28;20241;-79
2022/12/01 05:46:11;;;;;;;0.30;0.30;;;;;;;2.66;100.00;94815.59;5050788;28;20209;-78
2022/12/01 05:48:41;;;;;;;0.60;0.60;;;;;;;2.64;100.00;94823.09;5051202;28;20265;-79
2022/12/01 05:51:09;;;;;;;0.43;0.40;;;;;;;2.63;100.00;94821.50;5060889;28;20268;-79
2022/12/01 05:53:36;;;;;;;0.30;0.30;;;;;;;2.65;100.00;94835.38;5054745;28;20208;-79
2022/12/01 05:56:03;;;;;;;0.50;0.50;;;;;;;2.63;100.00;94824.16;5051072;28;20562;-79
2022/12/01 05:58:29;;;;;;;0.60;0.57;;;;;;;2.69;100.00;94825.75;5050544;28;20208;-79
2022/12/01 06:00:58;;;;;;;0.30;0.30;;;;;;;2.70;100.00;94821.22;5050205;28;20298;-80
2022/12/01 06:03:24;;;;;;;0.30;0.30;;;;;;;2.67;100.00;94817.19;5051221;28;20265;-78
2022/12/01 06:05:51;;;;;;;0.30;0.30;;;;;;;2.71;100.00;94828.97;5050353;28;20621;-79
2022/12/01 06:08:18;;;;;;;0.60;0.60;;;;;;;2.75;100.00;94819.31;5051118;28;20238;-79
2022/12/01 06:10:45;;;;;;;0.20;0.20;;;;;;;2.72;100.00;94814.53;5050379;28;20235;-78
2022/12/01 06:13:12;;;;;;;0.20;0.20;;;;;;;2.78;100.00;94817.97;5050647;28;20212;-76
2022/12/01 06:15:38;;;;;;;0.25;0.25;;;;;;;2.79;100.00;94815.00;5050675;28;20261;-79
2022/12/01 06:18:06;;;;;;;1.17;0.60;;;;;;;2.75;100.00;94823.84;5050366;28;20277;-78
2022/12/01 06:20:33;;;;;;;0.50;0.50;;;;;;;2.76;100.00;94820.09;5050654;28;20697;-80
2022/12/01 06:23:00;;;;;;;0.60;0.60;;;;;;;2.77;100.00;94816.34;5051518;28;20196;-78
2022/12/01 06:25:27;;;;;;;0.60;0.60;;;;;;;2.78;100.00;94823.31;5050066;28;20662;-80
2022/12/01 06:27:56;;;;;;;1.05;0.73;;;;;;;2.66;100.00;94815.59;5050361;28;20215;-79
2022/12/01 06:30:22;;;;;;;0.55;0.50;;;;;;;2.60;100.00;94814.00;5061668;28;20234;-80
2022/12/01 06:32:49;;;;;;;1.02;0.47;;;;;;;2.62;100.00;94825.22;5052046;28;20325;-81
2022/12/01 06:35:17;;;;;;;0.35;0.32;;;;;;;2.56;100.00;94814.84;5050326;28;20569;-78
2022/12/01 06:37:44;;;;;;;1.42;0.65;;;;;;;2.53;100.00;94826.88;5048905;28;20235;-78
2022/12/01 06:40:12;;;;;;;0.75;0.63;;;;;;;2.52;100.00;94813.78;5050539;28;20211;-80
2022/12/01 06:42:39;;;;;;;0.40;0.40;;;;;;;2.50;100.00;94814.84;5050170;28;20200;-79
2022/12/01 06:45:06;;;;;;;0.40;0.40;;;;;;;2.50;100.00;94822.06;5050107;28;20267;-80
2022/12/01 06:47:33;;;;;;;0.43;0.43;;;;;;;2.51;100.00;94810.31;5050745;28;20203;-80
2022/12/01 06:50:01;;;;;;;1.55;1.17;;;;;;;2.53;100.00;94816.19;5050190;28;20232;-75
2022/12/01 06:52:29;;;;;;;1.67;0.43;;;;;;;2.53;100.00;94816.19;5070100;28;20209;-82
2022/12/01 06:54:55;;;;;;;1.40;1.33;;;;;;;2.56;100.00;94821.00;5069800;28;20272;-80
2022/12/01 06:57:22;;;;;;;1.00;0.57;;;;;;;2.65;100.00;94818.53;5070069;28;20199;-79
2022/12/01 06:59:49;;;;;;;0.57;0.40;;;;;;;2.74;100.00;94808.88;5070180;28;20269;-81
2022/12/01 07:02:18;;;;;;;2.10;0.50;;;;;;;2.67;100.00;94801.16;5069314;28;20271;-77
2022/12/01 07:04:44;;;;;;;1.73;0.50;;;;;;;2.68;100.00;94818.81;5069638;28;20666;-80
2022/12/01 07:07:11;;;;;;;4.43;0.65;;;;;;;2.66;100.00;94815.59;5069312;28;20203;-82
2022/12/01 07:09:40;;;;;;;0.50;0.50;;;;;;;2.71;100.00;94818.28;5054243;28;20200;-80
2022/12/01 07:12:07;;;;;;;0.85;0.70;;;;;;;2.70;100.00;94822.00;5049545;28;20258;-80
2022/12/01 07:14:34;;;;;;;0.32;0.25;;;;;;;2.71;100.00;94820.94;5062632;28;20701;-81
2022/12/01 07:17:03;;;;;;;0.20;0.20;;;;;;;2.74;100.00;94809.66;5049569;28;20650;-78
2022/12/01 07:19:30;;;;;;;1.63;0.70;;;;;;;2.73;100.00;94821.44;5062819;28;20621;-81
2022/12/01 07:21:57;;;;;;;0.57;0.57;;;;;;;2.77;100.00;94829.72;5050157;28;20212;-79
2022/12/01 07:24:23;;;;;;;0.77;0.47;;;;;;;2.73;100.00;94832.13;5062815;28;20210;-80
2022/12/01 07:26:51;;;;;;;2.17;0.50;;;;;;;2.75;100.00;94832.66;5050211;28;20204;-80
2022/12/01 07:29:18;;;;;;;0.30;0.30;;;;;;;2.73;100.00;94826.03;5049765;28;20313;-81
2022/12/01 07:31:45;;;;;;;1.40;0.60;;;;;;;2.68;100.00;94845.56;5049045;28;20235;-80
2022/12/01 07:34:12;;;;;;;1.08;0.43;;;;;;;2.60;100.00;94816.69;5061935;28;20653;-80
2022/12/01 07:36:39;;;;;;;0.40;0.40;;;;;;;2.56;100.00;94829.00;5049472;28;20756;-80
2022/12/01 07:39:07;;;;;;;0.20;0.20;;;;;;;2.63;100.00;94836.72;5049320;28;20281;-81
2022/12/01 07:41:34;;;;;;;0.30;0.30;;;;;;;2.60;100.00;94824.69;5049593;28;20269;-79
2022/12/01 07:44:02;;;;;;;0.63;0.50;;;;;;;2.61;100.00;94830.84;5049163;28;20261;-80
2022/12/01 07:46:29;;;;;;;0.50;0.50;;;;;;;2.56;100.00;94831.69;5049512;28;20200;-80
2022/12/01 07:48:56;;;;;;;0.30;0.30;;;;;;;2.57;100.00;94833.28;5050337;28;20325;-79
2022/12/01 07:51:24;;;;;;;1.33;0.85;;;;;;;2.57;100.00;94835.97;5064788;28;20227;-80
2022/12/01 07:53:53;;;;;;;0.43;0.43;;;;;;;2.54;100.00;94828.47;5054703;28;20215;-79
2022/12/01 07:56:21;;;;;;;0.68;0.40;;;;;;;2.56;100.00;94830.88;5053509;28;20277;-81
2022/12/01 07:58:47;;;;;;;0.82;0.65;;;;;;;2.52;100.00;94835.97;5053252;28;20203;-80
2022/12/01 08:01:19;;;;;;;0.80;0.22;;;;;;;2.49;100.00;94837.31;5053295;28;20555;-80
2022/12/01 08:03:47;;;;;;;0.77;0.70;;;;;;;2.49;100.00;94844.53;5059373;28;20206;-77
2022/12/01 08:06:14;;;;;;;1.10;0.60;;;;;;;2.48;100.00;94833.03;5073101;28;20219;-80
2022/12/01 08:08:41;;;;;;;0.57;0.50;;;;;;;2.44;100.00;94832.00;5072915;28;20279;-79
2022/12/01 08:11:11;;;;;;;0.30;0.30;;;;;;;2.54;100.00;94833.81;5072410;28;20238;-78
2022/12/01 08:13:38;;;;;;;3.58;0.80;;;;;;;2.50;100.00;94822.06;5065187;28;20261;-77
2022/12/01 08:16:07;;;;;;;1.15;0.73;;;;;;;2.54;100.00;94833.03;5051993;28;20298;-80
2022/12/01 08:18:35;;;;;;;0.70;0.68;;;;;;;2.62;100.00;94830.59;5052698;28;20195;-79
2022/12/01 08:21:02;;;;;;;0.40;0.40;;;;;;;2.63;100.00;94839.41;5054204;28;20621;-79
2022/12/01 08:23:29;;;;;;;0.52;0.52;;;;;;;2.66;100.00;94837.00;5063772;28;20655;-77
2022/12/01 08:25:56;;;;;;;3.92;1.98;;;;;;;2.64;100.00;94828.44;5054672;28;20211;-81
2022/12/01 08:28:23;;;;;;;1.05;0.75;;;;;;;2.68;100.00;94832.19;5063459;28;20657;-77
2022/12/01 08:30:49;;;;;;;0.60;0.60;;;;;;;2.66;100.00;94839.66;5054984;28;20231;-81
2022/12/01 08:33:16;;;;;;;0.50;0.50;;;;;;;2.70;100.00;94832.72;5063136;28;20315;-81
2022/12/01 08:35:44;;;;;;;0.57;0.57;;;;;;;2.72;100.00;94835.91;5055431;28;20207;-83
2022/12/01 08:38:11;;;;;;;0.73;0.52;;;;;;;2.72;100.00;94825.22;5062502;28;20215;-82
2022/12/01 08:40:38;;;;;;;1.30;1.20;;;;;;;2.78;100.00;94834.81;5052048;28;20659;-80
2022/12/01 08:43:05;;;;;;;1.70;0.70;;;;;;;2.77;100.00;94835.88;5052737;28;20269;-82
2022/12/01 08:45:32;;;;;;;0.70;0.70;;;;;;;2.84;100.00;94839.06;5055402;28;20202;-79
2022/12/01 08:47:58;;;;;;;0.65;0.55;;;;;;;2.81;100.00;94834.28;5062110;28;20636;-80
2022/12/01 08:50:26;;;;;;;0.40;0.40;;;;;;;2.83;100.00;94832.13;5055509;28;20265;-81
2022/12/01 08:52:54;;;;;;;1.45;0.75;;;;;;;2.75;100.00;94818.50;5072396;28;20351;-84
2022/12/01 08:55:22;;;;;;;5.82;1.27;;;;;;;2.80;100.00;94837.22;5072167;28;20264;-83
2022/12/01 08:57:48;;;;;;;0.63;0.52;;;;;;;2.81;100.00;94850.31;5071845;28;20542;-81
2022/12/01 09:00:16;;;;;;;0.63;0.60;;;;;;;2.79;100.00;94830.25;5053695;28;20218;-81
2022/12/01 09:02:43;;;;;;;0.88;0.40;;;;;;;2.82;100.00;94822.50;5052044;28;20207;-79
2022/12/01 09:05:10;;;;;;;0.65;0.60;;;;;;;2.89;100.00;94810.69;5051757;28;20517;-82
2022/12/01 09:07:37;;;;;;;1.50;0.90;;;;;;;2.88;100.00;94811.75;5052083;28;20203;-81
2022/12/01 09:10:06;;;;;;;0.65;0.65;;;;;;;3.00;100.00;94793.53;5052342;28;20211;-77
2022/12/01 09:12:33;;;;;;;0.80;0.60;;;;;;;3.07;100.00;94815.41;5051353;28;20257;-79
2022/12/01 09:14:59;;;;;;;0.60;0.55;;;;;;;3.12;100.00;94808.19;5052214;28;20281;-81
2022/12/01 09:17:28;;;;;;;1.23;1.13;;;;;;;3.13;100.00;94811.66;5051995;28;20208;-82
2022/12/01 09:19:54;;;;;;;0.30;0.30;;;;;;;3.18;100.00;94811.59;5051558;28;20257;-82
2022/12/01 09:22:21;;;;;;;0.45;0.45;;;;;;;3.23;100.00;94800.88;5052044;28;20266;-81
2022/12/01 09:24:48;;;;;;;0.43;0.43;;;;;;;3.33;100.00;94803.50;5058244;28;20423;-82
2022/12/01 09:27:16;;;;;;;1.67;0.70;;;;;;;3.35;99.70;94806.69;5071580;28;20210;-82
2022/12/01 09:29:43;;;;;;;0.35;0.35;;;;;;;3.43;98.78;94814.13;5051883;28;20204;-82
2022/12/01 09:32:10;;;;;;;0.73;0.55;;;;;;;3.40;99.04;94793.28;5051552;28;20606;-81
2022/12/01 09:34:36;;;;;;;0.35;0.35;;;;;;;3.50;98.82;94793.19;5057807;28;20238;-83
2022/12/01 09:37:03;;;;;;;0.50;0.50;;;;;;;3.51;98.78;94784.09;5057486;28;20227;-81
2022/12/01 09:39:30;;;;;;;1.00;0.90;;;;;;;3.49;98.25;94805.00;5051461;28;20203;-83
2022/12/01 09:42:02;;;;;;;0.60;0.60;;;;;;;3.43;98.37;94792.69;5050857;28;20658;-83
2022/12/01 09:44:41;;;;;;;1.08;0.98;;;;;;;3.38;99.12;94790.06;5058086;28;20207;-82
2022/12/01 09:47:17;;;;;;;3.80;1.33;;;;;;;3.33;98.90;94795.47;5070894;28;20199;-79
2022/12/01 09:49:56;;;;;;;0.57;0.57;;;;;;;3.33;99.82;94791.97;5058780;28;20195;-81
2022/12/01 09:52:25;;;;;;;0.60;0.60;;;;;;;3.37;100.00;94785.81;5051440;28;20216;-83
2022/12/01 09:54:54;;;;;;;1.10;0.90;;;;;;;3.42;100.00;94791.09;5051063;28;20216;-82
2022/12/01 09:57:29;;;;;;;0.80;0.68;;;;;;;3.39;100.00;94772.94;5051080;28;20302;-83
2022/12/01 09:59:59;;;;;;;0.50;0.47;;;;;;;3.39;99.85;94775.63;5050583;28;20290;-81
2022/12/01 10:02:32;;;;;;;0.88;0.47;;;;;;;3.37;100.00;94782.31;5051151;28;20199;-82
2022/12/01 10:05:02;;;;;;;1.45;0.93;;;;;;;3.43;100.00;94782.00;5052231;28;20229;-81
2022/12/01 10:07:33;;;;;;;0.50;0.50;;;;;;;3.40;100.00;94774.53;5050970;28;20222;-80
2022/12/01 10:10:05;;;;;;;0.30;0.30;;;;;;;3.39;100.00;94775.63;5055407;28;20272;-81
2022/12/01 10:12:34;;;;;;;0.43;0.43;;;;;;;3.46;100.00;94781.44;5058362;28;20596;-79
2022/12/01 10:15:15;;;;;;;0.95;0.80;;;;;;;3.44;100.00;94767.53;5050290;28;20651;-78
2022/12/01 10:17:51;;;;;;;0.80;0.50;;;;;;;3.51;99.83;94772.59;5051340;28;20226;-82
2022/12/01 10:20:23;;;;;;;0.93;0.82;;;;;;;3.48;99.69;94773.94;5050622;28;20257;-82
2022/12/01 10:23:04;;;;;;;0.45;0.40;;;;;;;3.44;100.00;94769.41;5051194;28;20265;-82
2022/12/01 10:25:37;;;;;;;0.20;0.20;;;;;;;3.51;100.00;94768.03;5050762;28;20204;-79
2022/12/01 10:28:21;;;;;;;1.25;0.80;;;;;;;3.49;99.92;94780.09;5064082;28;20199;-81
2022/12/01 10:30:50;;;;;;;1.40;0.75;;;;;;;3.49;100.00;94762.16;5050363;28;20408;-81
2022/12/01 10:33:24;;;;;;;0.50;0.50;;;;;;;3.47;100.00;94775.00;5049967;28;20575;-81
2022/12/01 10:36:01;;;;;;;0.30;0.30;;;;;;;3.41;100.00;94768.09;5125035;27;1324717;-77
2022/12/01 10:38:31;;;;;;;0.60;0.60;;;;;;;3.50;100.00;94769.09;5168753;27;20539;-78
2022/12/01 10:41:00;;;;;;;1.50;0.77;;;;;;;3.46;100.00;94765.38;5148657;27;20624;-76
2022/12/01 10:43:32;;;;;;;0.55;0.50;;;;;;;3.42;100.00;94764.31;5148119;27;20671;-77
2022/12/01 10:46:05;;;;;;;0.50;0.50;;;;;;;3.47;100.00;94758.94;5154633;27;20203;-77
2022/12/01 10:48:31;;;;;;;1.67;0.73;;;;;;;3.44;100.00;94756.81;5169007;27;20264;-77
2022/12/01 10:51:18;;;;;;;0.65;0.60;;;;;;;3.46;99.56;94749.31;5159926;27;20208;-76
2022/12/01 10:53:45;;;;;;;1.17;0.70;;;;;;;3.43;99.15;94755.22;5148082;27;20227;-78
2022/12/01 10:56:15;;;;;;;1.20;0.60;;;;;;;3.42;98.41;94758.97;5147847;27;20203;-77
2022/12/01 10:58:46;;;;;;;1.35;1.05;;;;;;;3.46;98.65;94754.66;5147307;27;20678;-76
2022/12/01 11:01:19;;;;;;;0.63;0.63;;;;;;;3.47;98.72;94761.63;5147928;27;20208;-77
2022/12/01 11:03:52;;;;;;;1.05;0.57;;;;;;;3.50;98.24;94750.34;5147887;27;20283;-77
2022/12/01 11:06:24;;;;;;;0.30;0.30;;;;;;;3.47;98.50;94758.94;5147348;27;20236;-80
2022/12/01 11:08:53;;;;;;;0.35;0.35;;;;;;;3.46;98.23;94757.34;5146877;27;20253;-76
2022/12/01 11:11:26;;;;;;;0.43;0.43;;;;;;;3.43;97.92;94749.88;5149767;27;20222;-77
2022/12/01 11:13:54;;;;;;;0.38;0.38;;;;;;;3.47;98.24;94755.47;5157839;27;20543;-76
2022/12/01 11:16:40;;;;;;;0.65;0.47;;;;;;;3.53;97.99;94749.00;5146692;27;20204;-76
2022/12/01 11:19:19;;;;;;;1.00;0.75;;;;;;;3.49;97.51;94746.09;5161130;27;20191;-76
2022/12/01 11:21:52;;;;;;;0.35;0.30;;;;;;;3.45;97.56;94746.91;5146971;27;20200;-77
2022/12/01 11:24:30;;;;;;;0.70;0.65;;;;;;;3.41;97.41;94746.69;5160524;27;20226;-76
2022/12/01 11:26:58;;;;;;;0.82;0.25;;;;;;;3.46;97.67;94743.16;5158161;27;20678;-75
2022/12/01 11:29:35;;;;;;;0.82;0.63;;;;;;;3.42;97.84;94740.22;5148526;27;20200;-75
2022/12/01 11:32:11;;;;;;;0.35;0.35;;;;;;;3.33;98.41;94728.53;5146855;27;20582;-76
2022/12/01 11:34:38;;;;;;;2.10;1.10;;;;;;;3.30;97.99;94739.78;5146533;27;20250;-76
2022/12/01 11:37:09;;;;;;;0.65;0.50;;;;;;;3.32;98.30;94743.00;5161736;27;20228;-76
2022/12/01 11:39:39;;;;;;;2.08;0.52;;;;;;;3.29;97.98;94743.53;5167448;27;20288;-76
2022/12/01 11:42:20;;;;;;;0.98;0.80;;;;;;;3.27;98.22;94748.41;5167797;27;20591;-75
2022/12/01 11:44:50;;;;;;;0.68;0.50;;;;;;;3.22;98.12;94743.06;5167461;27;20204;-77
2022/12/01 11:47:19;;;;;;;0.57;0.57;;;;;;;3.30;99.03;94745.13;5153231;27;20265;-75
2022/12/01 11:49:51;;;;;;;0.43;0.43;;;;;;;3.28;98.18;94741.94;5153469;27;20200;-77
2022/12/01 11:52:24;;;;;;;0.45;0.45;;;;;;;3.16;98.25;94739.63;5133562;27;20204;-76